createdAt,value
2022-09-24T08:30:22.416Z,7.43
2022-09-24T08:32:49.052Z,6.43
2022-09-24T08:35:15.892Z,7.33
2022-09-24T08:37:42.441Z,7.27
2022-09-24T08:40:17.709Z,7.33
2022-09-24T08:42:46.219Z,8.07
2022-09-24T08:45:31.384Z,6.70
2022-09-24T08:48:04.197Z,7.00
2022-09-24T08:50:34.974Z,8.83
2022-09-24T08:53:26.572Z,7.27
2022-09-24T08:55:56.016Z,9.30
2022-09-24T08:58:44.376Z,8.87
2022-09-24T09:01:11.393Z,6.83
2022-09-24T09:04:00.225Z,6.27
2022-09-24T09:06:44.204Z,7.60
2022-09-24T09:09:21.802Z,7.40
2022-09-24T09:12:00.773Z,7.10
2022-09-24T09:14:45.768Z,8.13
2022-09-24T09:17:24.180Z,7.77
2022-09-24T09:19:57.068Z,6.80
2022-09-24T09:22:29.212Z,7.97
2022-09-24T09:25:04.195Z,7.13
2022-09-24T09:27:30.952Z,8.23
2022-09-24T09:30:00.960Z,6.93
2022-09-24T09:32:43.811Z,7.37
2022-09-24T09:35:34.915Z,6.33
2022-09-24T09:38:41.348Z,6.60
2022-09-24T09:41:14.556Z,7.20
2022-09-24T09:43:44.322Z,7.57
2022-09-24T09:46:29.066Z,6.93
2022-09-24T09:49:02.998Z,8.10
2022-09-24T09:51:37.275Z,11.93
2022-09-24T09:54:04.976Z,9.17
2022-09-24T09:56:47.414Z,7.80
2022-09-24T09:59:14.080Z,6.70
2022-09-24T10:01:43.316Z,7.97
2022-09-24T10:04:37.481Z,6.70
2022-09-24T10:07:10.488Z,8.57
2022-09-24T10:09:38.721Z,9.07
2022-09-24T10:12:15.984Z,6.30
2022-09-24T10:14:43.269Z,7.23
2022-09-24T10:17:16.899Z,7.13
2022-09-24T10:19:47.850Z,6.50
2022-09-24T10:22:24.630Z,7.27
2022-09-24T10:24:53.761Z,6.77
2022-09-24T10:27:41.090Z,9.17
2022-09-24T10:30:35.190Z,5.97
2022-09-24T10:33:04.349Z,6.80
2022-09-24T10:35:35.738Z,6.10
2022-09-24T10:38:14.631Z,8.83
2022-09-24T10:40:42.568Z,6.03
2022-09-24T10:43:17.086Z,9.10
2022-09-24T10:46:01.849Z,6.33
2022-09-24T10:48:45.713Z,7.90
2022-09-24T10:51:29.098Z,7.57
2022-09-24T10:54:26.057Z,6.90
2022-09-24T10:56:55.701Z,7.47
2022-09-24T10:59:51.275Z,9.53
2022-09-24T11:02:49.289Z,7.83
2022-09-24T11:05:22.448Z,7.63
2022-09-24T11:08:15.609Z,7.77
2022-09-24T11:10:57.767Z,6.63
2022-09-24T11:13:45.887Z,7.47
2022-09-24T11:16:42.151Z,6.83
2022-09-24T11:19:57.413Z,6.50
2022-09-24T11:22:32.147Z,6.53
2022-09-24T11:25:29.295Z,6.10
2022-09-24T11:28:14.777Z,5.87
2022-09-24T11:30:58.421Z,9.30
2022-09-24T11:34:02.320Z,5.83
2022-09-24T11:36:43.975Z,7.40
2022-09-24T11:39:35.213Z,6.90
2022-09-24T11:42:24.178Z,6.07
2022-09-24T11:45:02.699Z,7.00
2022-09-24T11:47:48.269Z,6.07
2022-09-24T11:50:17.781Z,5.97
2022-09-24T11:52:56.289Z,7.23
2022-09-24T11:55:34.771Z,8.83
2022-09-24T11:58:16.621Z,5.43
2022-09-24T12:01:14.083Z,5.60
2022-09-24T12:03:58.312Z,5.93
2022-09-24T12:06:31.214Z,5.47
2022-09-24T12:09:17.936Z,5.23
2022-09-24T12:11:54.327Z,5.77
2022-09-24T12:14:31.823Z,7.00
2022-09-24T12:17:07.172Z,7.20
2022-09-24T12:19:42.013Z,7.77
2022-09-24T12:22:11.870Z,5.97
2022-09-24T12:24:58.526Z,6.00
2022-09-24T12:27:45.094Z,8.50
2022-09-24T12:30:52.475Z,6.43
2022-09-24T12:33:43.356Z,5.80
2022-09-24T12:36:22.107Z,7.43
2022-09-24T12:38:55.244Z,6.00
2022-09-24T12:41:44.363Z,6.57
2022-09-24T12:44:10.952Z,7.23
2022-09-24T12:46:55.550Z,9.03
2022-09-24T12:49:25.312Z,4.60
2022-09-24T12:51:54.474Z,5.40
2022-09-24T12:54:29.302Z,4.87
2022-09-24T12:57:24.443Z,5.80
2022-09-24T13:00:23.410Z,5.57
2022-09-24T13:02:50.698Z,7.03
2022-09-24T13:05:28.303Z,6.63
2022-09-24T13:08:23.175Z,7.40
2022-09-24T13:11:05.582Z,7.90
2022-09-24T13:13:36.691Z,6.53
2022-09-24T13:16:06.110Z,6.90
2022-09-24T13:18:35.886Z,4.87
2022-09-24T13:21:08.179Z,4.63
2022-09-24T13:23:38.736Z,4.67
2022-09-24T13:26:09.178Z,4.77
2022-09-24T13:28:57.584Z,5.30
2022-09-24T13:31:27.401Z,5.10
2022-09-24T13:34:00.612Z,4.77
2022-09-24T13:36:33.197Z,5.90
2022-09-24T13:39:32.801Z,7.17
2022-09-24T13:42:23.400Z,6.93
2022-09-24T13:44:56.650Z,5.53
2022-09-24T13:47:49.065Z,5.27
2022-09-24T13:50:25.195Z,6.37
2022-09-24T13:53:00.353Z,6.23
2022-09-24T13:55:39.984Z,4.13
2022-09-24T13:58:26.013Z,4.77
2022-09-24T14:00:53.431Z,5.13
2022-09-24T14:03:30.193Z,6.67
2022-09-24T14:05:59.675Z,4.63
2022-09-24T14:08:28.274Z,5.03
2022-09-24T14:11:21.459Z,4.90
2022-09-24T14:13:48.070Z,5.70
2022-09-24T14:16:15.957Z,6.27
2022-09-24T14:18:42.777Z,6.33
2022-09-24T14:21:28.054Z,5.57
2022-09-24T14:24:09.037Z,5.40
2022-09-24T14:26:41.209Z,5.13
2022-09-24T14:29:14.818Z,5.70
2022-09-24T14:31:48.191Z,6.70
2022-09-24T14:34:29.842Z,6.57
2022-09-24T14:37:00.734Z,6.67
2022-09-24T14:39:29.503Z,6.87
2022-09-24T14:41:58.275Z,5.87
2022-09-24T14:44:28.058Z,6.53
2022-09-24T14:46:58.359Z,13.27
2022-09-24T14:49:30.023Z,5.87
2022-09-24T14:52:04.231Z,7.03
2022-09-24T14:54:42.286Z,5.90
2022-09-24T14:57:11.470Z,6.07
2022-09-24T14:59:39.348Z,6.57
2022-09-24T15:02:17.822Z,4.90
2022-09-24T15:04:48.481Z,5.67
2022-09-24T15:07:21.766Z,5.40
2022-09-24T15:09:51.471Z,8.00
2022-09-24T15:12:22.540Z,4.37
2022-09-24T15:14:57.684Z,6.83
2022-09-24T15:17:30.426Z,5.83
2022-09-24T15:19:58.121Z,6.33
2022-09-24T15:22:26.903Z,4.60
2022-09-24T15:25:01.482Z,4.90
2022-09-24T15:27:32.150Z,6.23
2022-09-24T15:30:01.198Z,5.67
2022-09-24T15:32:31.089Z,6.27
2022-09-24T15:34:57.858Z,4.90
2022-09-24T15:37:27.064Z,5.93
2022-09-24T15:39:58.125Z,4.77
2022-09-24T15:42:26.629Z,5.50
2022-09-24T15:44:56.087Z,5.33
2022-09-24T15:47:23.244Z,5.97
2022-09-24T15:49:50.140Z,4.70
2022-09-24T15:52:26.737Z,4.70
2022-09-24T15:54:58.160Z,4.30
2022-09-24T15:57:26.506Z,5.63
2022-09-24T15:59:53.478Z,6.83
2022-09-24T16:02:25.040Z,5.53
2022-09-24T16:04:52.248Z,4.60
2022-09-24T16:07:18.845Z,7.43
2022-09-24T16:09:45.612Z,5.60
2022-09-24T16:12:16.195Z,4.73
2022-09-24T16:14:43.142Z,4.97
2022-09-24T16:17:10.150Z,5.53
2022-09-24T16:19:36.892Z,5.40
2022-09-24T16:22:04.011Z,5.67
2022-09-24T16:24:34.739Z,5.53
2022-09-24T16:27:01.927Z,5.57
2022-09-24T16:29:28.546Z,6.10
2022-09-24T16:31:55.193Z,7.33
2022-09-24T16:34:21.801Z,6.00
2022-09-24T16:36:48.493Z,6.57
2022-09-24T16:39:18.064Z,6.13
2022-09-24T16:41:47.366Z,7.03
2022-09-24T16:44:15.066Z,6.40
2022-09-24T16:46:45.517Z,8.27
2022-09-24T16:49:12.638Z,7.03
2022-09-24T16:51:39.343Z,8.10
2022-09-24T16:54:06.117Z,7.50
2022-09-24T16:56:32.734Z,7.23
2022-09-24T16:58:59.292Z,7.57
2022-09-24T17:01:25.942Z,8.00
2022-09-24T17:03:56.871Z,9.67
2022-09-24T17:06:26.215Z,9.00
2022-09-24T17:09:12.098Z,8.70
2022-09-24T17:11:42.462Z,8.90
2022-09-24T17:14:12.411Z,12.43
2022-09-24T17:16:40.951Z,13.33
2022-09-24T17:19:09.366Z,12.83
2022-09-24T17:21:37.690Z,15.20
2022-09-24T17:24:04.908Z,12.17
2022-09-24T17:26:31.466Z,11.50
2022-09-24T17:28:58.460Z,10.80
2022-09-24T17:31:26.009Z,11.53
2022-09-24T17:34:04.920Z,12.80
2022-09-24T17:36:33.989Z,12.07
2022-09-24T17:39:01.083Z,10.50
2022-09-24T17:41:29.041Z,10.70
2022-09-24T17:43:58.767Z,11.10
2022-09-24T17:46:30.463Z,10.40
2022-09-24T17:48:59.433Z,9.53
2022-09-24T17:51:36.379Z,10.87
2022-09-24T17:54:05.689Z,10.40
2022-09-24T17:56:33.683Z,8.70
2022-09-24T17:59:00.554Z,10.87
2022-09-24T18:01:33.348Z,8.23
2022-09-24T18:04:00.309Z,7.37
2022-09-24T18:06:32.960Z,8.63
2022-09-24T18:09:00.989Z,9.13
2022-09-24T18:11:30.381Z,9.40
2022-09-24T18:13:59.108Z,7.20
2022-09-24T18:16:28.654Z,7.37
2022-09-24T18:18:55.933Z,6.30
2022-09-24T18:21:24.228Z,7.57
2022-09-24T18:23:55.234Z,10.00
2022-09-24T18:26:24.956Z,9.73
2022-09-24T18:28:54.711Z,7.67
2022-09-24T18:31:24.404Z,9.60
2022-09-24T18:33:52.812Z,9.27
2022-09-24T18:36:21.937Z,10.50
2022-09-24T18:38:49.059Z,11.53
2022-09-24T18:41:21.399Z,10.90
2022-09-24T18:43:48.302Z,9.47
2022-09-24T18:46:16.439Z,10.57
2022-09-24T18:48:44.870Z,9.27
2022-09-24T18:51:16.229Z,8.57
2022-09-24T18:53:42.838Z,11.83
2022-09-24T18:56:09.586Z,9.37
2022-09-24T18:58:36.145Z,9.10
2022-09-24T19:01:04.770Z,7.80
2022-09-24T19:03:32.166Z,8.60
2022-09-24T19:06:05.104Z,9.47
2022-09-24T19:08:32.179Z,8.23
2022-09-24T19:11:09.325Z,9.90
2022-09-24T19:13:38.010Z,8.70
2022-09-24T19:16:10.530Z,8.97
2022-09-24T19:18:37.933Z,8.30
2022-09-24T19:21:06.653Z,8.73
2022-09-24T19:23:45.622Z,8.70
2022-09-24T19:26:15.186Z,7.87
2022-09-24T19:28:42.817Z,8.57
2022-09-24T19:31:15.049Z,8.93
2022-09-24T19:33:41.964Z,7.87
2022-09-24T19:36:09.455Z,8.90
2022-09-24T19:38:37.039Z,8.17
2022-09-24T19:41:06.822Z,7.77
2022-09-24T19:43:34.519Z,7.87
2022-09-24T19:46:09.642Z,8.53
2022-09-24T19:48:38.397Z,7.37
2022-09-24T19:51:08.575Z,8.60
2022-09-24T19:53:36.225Z,8.97
2022-09-24T19:56:06.345Z,8.50
2022-09-24T19:58:33.373Z,8.90
2022-09-24T20:01:04.714Z,8.93
2022-09-24T20:03:32.778Z,9.10
2022-09-24T20:05:59.888Z,9.80
2022-09-24T20:08:26.485Z,10.90
2022-09-24T20:10:53.139Z,9.53
2022-09-24T20:13:20.792Z,10.67
2022-09-24T20:15:47.419Z,11.87
2022-09-24T20:18:15.199Z,10.57
2022-09-24T20:20:41.765Z,10.23
2022-09-24T20:23:10.061Z,9.33
2022-09-24T20:25:55.330Z,10.87
2022-09-24T20:28:22.489Z,10.90
